Time;durP1;ratioP1;P1;durP2;ratioP2;P2;SDS_P1;SDS_P2;PMS_P1;PMS_P2;Temp;Humidity;BMP_temperature;BMP_pressure;BME280_temperature;BME280_humidity;BME280_pressure;Samples;Min_cycle;Max_cycle;Signal;HPM_P1;HPM_P2
2023/10/02 00:05:05;;;;;;;0.20;0.20;;;14.90;1.00;;;;;;5103519;28;21024;-79
2023/10/02 00:07:45;;;;;;;0.25;0.25;;;14.80;99.90;;;;;;5103618;28;20043;-79
2023/10/02 00:10:16;;;;;;;0.40;0.30;;;14.80;99.90;;;;;;5096562;28;20040;-79
2023/10/02 00:12:58;;;;;;;0.20;0.10;;;14.80;16.50;;;;;;5111864;28;20059;-78
2023/10/02 00:15:23;;;;;;;2.60;0.52;;;14.80;1.00;;;;;;5085174;28;20057;-78
2023/10/02 00:17:49;;;;;;;0.65;0.30;;;14.70;99.90;;;;;;5095821;28;20047;-78
2023/10/02 00:20:21;;;;;;;0.17;0.15;;;14.70;97.50;;;;;;5106473;28;20549;-78
2023/10/02 00:22:46;;;;;;;0.43;0.43;;;14.70;1.00;;;;;;5098310;28;20059;-78
2023/10/02 00:25:19;;;;;;;0.80;0.68;;;14.60;99.90;;;;;;5105975;28;20039;-78
2023/10/02 00:27:50;;;;;;;2.15;1.67;;;14.70;99.90;;;;;;5099881;28;20052;-78
2023/10/02 00:30:17;;;;;;;0.73;0.73;;;14.70;99.90;;;;;;5105533;28;20512;-78
2023/10/02 00:32:46;;;;;;;1.65;1.40;;;14.60;99.90;;;;;;5106404;28;20042;-78
2023/10/02 00:35:12;;;;;;;2.53;1.20;;;14.70;99.90;;;;;;5097408;28;20502;-78
2023/10/02 00:37:51;;;;;;;2.80;1.17;;;14.80;99.90;;;;;;5105845;28;20036;-78
2023/10/02 00:40:21;;;;;;;0.80;0.65;;;14.70;99.90;;;;;;5104549;28;20044;-78
2023/10/02 00:43:33;;;;;;;1.15;0.85;;;14.80;99.90;;;;;;5101821;28;20464;-78
2023/10/02 00:45:49;;;;;;;0.77;0.57;;;14.80;1.00;;;;;;5088848;28;20051;-79
2023/10/02 00:48:25;;;;;;;0.95;0.40;;;15.00;1.00;;;;;;5112396;28;20042;-79
2023/10/02 00:50:54;;;;;;;2.17;0.77;;;15.00;1.00;;;;;;5108786;28;20125;-79
2023/10/02 00:53:37;;;;;;;7.80;2.72;;;15.00;1.00;;;;;;5109932;28;20489;-79
2023/10/02 00:56:23;;;;;;;1.38;1.27;;;15.10;99.90;;;;;;5080677;28;20049;-79
2023/10/02 00:59:00;;;;;;;2.03;1.17;;;15.20;99.90;;;;;;5080576;28;20040;-79
2023/10/02 01:01:35;;;;;;;2.38;1.52;;;15.20;1.00;;;;;;5096990;28;20043;-80
2023/10/02 01:04:23;;;;;;;5.07;2.30;;;15.40;1.00;;;;;;5089230;28;20043;-79
2023/10/02 01:06:55;;;;;;;1.50;1.40;;;15.50;26.10;;;;;;5086169;28;20141;-79
2023/10/02 01:09:26;;;;;;;2.22;1.80;;;15.50;96.20;;;;;;5115384;28;20071;-79
2023/10/02 01:11:53;;;;;;;0.63;0.63;;;15.60;99.90;;;;;;5109243;28;20085;-80
2023/10/02 01:14:40;;;;;;;5.05;2.20;;;15.70;97.40;;;;;;5108925;28;20105;-79
2023/10/02 01:17:07;;;;;;;0.90;0.73;;;15.60;73.50;;;;;;5107520;28;20036;-77
2023/10/02 01:19:54;;;;;;;8.48;1.20;;;15.50;86.40;;;;;;5096236;28;20055;-79
2023/10/02 01:22:36;;;;;;;1.75;1.13;;;15.60;99.90;;;;;;5111798;28;20035;-79
2023/10/02 01:25:12;;;;;;;7.03;3.17;;;15.50;99.90;;;;;;5111333;28;20685;-79
2023/10/02 01:27:50;;;;;;;1.95;1.52;;;15.50;99.90;;;;;;5107950;28;20035;-80
2023/10/02 01:30:18;;;;;;;3.90;2.45;;;15.50;99.90;;;;;;5109429;28;20779;-79
2023/10/02 01:33:06;;;;;;;0.82;0.65;;;15.50;99.90;;;;;;5107669;28;20058;-79
2023/10/02 01:35:40;;;;;;;1.77;1.52;;;15.60;99.90;;;;;;5112812;28;20092;-80
2023/10/02 01:38:14;;;;;;;2.92;1.38;;;15.60;99.90;;;;;;5112301;28;20047;-80
2023/10/02 01:40:48;;;;;;;2.35;1.33;;;15.80;99.90;;;;;;5110499;28;20040;-79
2023/10/02 01:43:15;;;;;;;6.80;0.85;;;15.80;99.90;;;;;;5109823;28;20039;-80
2023/10/02 01:45:45;;;;;;;1.95;1.83;;;15.80;99.90;;;;;;5109766;28;20052;-79
2023/10/02 01:51:26;;;;;;;1.52;0.68;;;15.80;97.90;;;;;;5081215;28;20044;-79
2023/10/02 01:53:58;;;;;;;3.60;1.92;;;15.70;78.10;;;;;;5089889;28;20101;-79
2023/10/02 01:56:27;;;;;;;4.45;2.88;;;15.40;99.90;;;;;;5121708;28;20044;-80
2023/10/02 01:58:54;;;;;;;2.30;1.17;;;15.30;99.90;;;;;;5101778;28;20040;-80
2023/10/02 02:01:21;;;;;;;2.05;1.17;;;15.40;99.90;;;;;;5118435;28;20047;-79
2023/10/02 02:03:49;;;;;;;0.90;0.80;;;15.20;99.90;;;;;;5113503;28;20066;-79
2023/10/02 02:06:20;;;;;;;0.93;0.30;;;15.20;99.90;;;;;;5115904;28;20062;-79
2023/10/02 02:08:53;;;;;;;0.65;0.65;;;15.10;99.90;;;;;;5098828;28;20047;-76
2023/10/02 02:11:22;;;;;;;2.50;1.42;;;15.20;99.90;;;;;;5105448;28;20069;-78
2023/10/02 02:13:53;;;;;;;0.77;0.68;;;15.30;99.90;;;;;;5108253;28;20036;-79
2023/10/02 02:16:33;;;;;;;1.35;1.02;;;15.40;99.90;;;;;;5115293;28;20043;-79
2023/10/02 02:19:06;;;;;;;1.70;1.02;;;15.40;99.90;;;;;;5104303;28;20047;-79
2023/10/02 02:21:32;;;;;;;3.47;2.22;;;15.40;99.90;;;;;;5096209;28;20044;-79
2023/10/02 02:24:06;;;;;;;0.68;0.50;;;15.40;99.90;;;;;;5109735;28;20035;-80
2023/10/02 02:26:34;;;;;;;1.15;0.52;;;15.40;99.90;;;;;;5111690;28;20523;-78
2023/10/02 02:29:01;;;;;;;10.43;1.17;;;15.30;99.90;;;;;;5112185;28;20048;-79
2023/10/02 02:31:31;;;;;;;1.45;0.85;;;15.20;99.90;;;;;;5092985;28;20084;-80
2023/10/02 02:34:14;;;;;;;2.35;1.17;;;15.10;99.90;;;;;;5120761;28;20073;-80
2023/10/02 02:36:41;;;;;;;3.42;1.40;;;15.10;99.90;;;;;;5102215;28;20040;-79
2023/10/02 02:39:15;;;;;;;7.05;2.17;;;15.00;99.90;;;;;;5091197;28;20052;-80
2023/10/02 02:44:46;;;;;;;4.15;1.88;;;15.00;99.90;;;;;;5100426;28;20052;-79
2023/10/02 02:47:13;;;;;;;4.10;1.17;;;14.90;1.00;;;;;;5099660;28;20421;-80
2023/10/02 02:49:58;;;;;;;2.88;2.00;;;14.90;1.00;;;;;;5100074;28;20040;-79
2023/10/02 02:52:32;;;;;;;2.05;1.88;;;14.80;1.00;;;;;;5090566;28;20047;-80
2023/10/02 02:55:03;;;;;;;3.28;1.83;;;14.90;1.00;;;;;;5110115;28;20052;-77
2023/10/02 02:57:34;;;;;;;1.95;1.55;;;15.00;2.80;;;;;;5107739;28;20039;-79
2023/10/02 03:05:58;;;;;;;1.80;1.63;;;15.20;49.90;;;;;;5039275;28;20053;-79
2023/10/02 03:08:41;;;;;;;1.45;1.08;;;15.30;1.00;;;;;;5088476;28;20089;-79
2023/10/02 03:11:07;;;;;;;6.22;1.27;;;15.30;1.00;;;;;;5110493;28;20056;-80
2023/10/02 03:13:36;;;;;;;3.97;2.25;;;15.40;1.00;;;;;;5111067;28;20052;-79
2023/10/02 03:16:21;;;;;;;1.20;0.85;;;15.40;1.00;;;;;;5119147;28;20031;-79
2023/10/02 03:18:49;;;;;;;0.93;0.63;;;15.60;1.00;;;;;;5110033;28;20100;-80
2023/10/02 03:21:22;;;;;;;1.35;1.25;;;15.40;1.00;;;;;;5107176;28;20062;-79
2023/10/02 03:23:49;;;;;;;2.92;2.00;;;15.40;1.00;;;;;;5115877;28;20096;-79
2023/10/02 03:29:16;;;;;;;2.47;1.27;;;15.40;1.00;;;;;;5109572;28;20107;-79
2023/10/02 03:31:43;;;;;;;4.32;1.45;;;15.40;1.00;;;;;;5105466;28;20043;-79
2023/10/02 03:34:28;;;;;;;1.35;0.82;;;15.30;1.00;;;;;;5102835;28;20044;-79
2023/10/02 03:36:59;;;;;;;3.65;1.70;;;15.30;1.00;;;;;;5102871;28;20036;-79
2023/10/02 03:42:21;;;;;;;1.15;0.85;;;15.10;1.00;;;;;;5110449;28;20070;-79
2023/10/02 03:44:54;;;;;;;0.75;0.68;;;15.00;1.00;;;;;;5110859;28;20462;-79
2023/10/02 03:47:20;;;;;;;2.55;2.28;;;14.90;1.00;;;;;;5110540;28;20047;-79
2023/10/02 03:49:46;;;;;;;2.83;1.55;;;14.90;1.00;;;;;;5110641;28;20039;-80
2023/10/02 03:52:14;;;;;;;1.25;0.95;;;14.80;2.90;;;;;;5111225;28;20049;-79
2023/10/02 03:54:46;;;;;;;1.70;0.88;;;14.80;58.00;;;;;;5101834;28;20043;-80
2023/10/02 04:00:18;;;;;;;;;;;14.60;99.90;;;;;;5097858;28;20052;-79
2023/10/02 04:02:46;;;;;;;4.55;2.03;;;14.60;99.90;;;;;;5110984;28;19989;-80
2023/10/02 04:05:30;;;;;;;6.38;1.88;;;14.60;99.90;;;;;;5104505;28;20044;-80
2023/10/02 04:11:03;;;;;;;5.05;0.98;;;14.50;99.90;;;;;;5047836;28;20057;-79
2023/10/02 04:13:35;;;;;;;1.75;1.52;;;14.50;99.90;;;;;;5090468;28;20520;-79
2023/10/02 04:18:46;;;;;;;0.60;0.57;;;14.60;99.90;;;;;;5113764;28;20130;-79
2023/10/02 04:21:19;;;;;;;1.00;0.80;;;14.60;99.90;;;;;;5103765;28;20071;-79
2023/10/02 04:23:45;;;;;;;2.70;1.73;;;14.40;99.90;;;;;;5111530;28;20040;-79
2023/10/02 04:26:20;;;;;;;19.70;2.17;;;14.40;99.90;;;;;;5103049;28;20044;-79
2023/10/02 04:28:55;;;;;;;2.38;1.30;;;14.40;99.90;;;;;;5119875;28;20047;-79
2023/10/02 04:31:30;;;;;;;1.35;1.20;;;14.50;99.90;;;;;;5087312;28;20046;-77
2023/10/02 04:36:42;;;;;;;3.10;1.45;;;14.50;1.00;;;;;;5101105;28;20127;-77
2023/10/02 04:42:15;;;;;;;2.38;1.40;;;14.50;99.90;;;;;;5024962;28;20053;-78
2023/10/02 04:44:46;;;;;;;2.42;1.60;;;14.50;1.00;;;;;;5089868;28;20113;-77
2023/10/02 04:47:20;;;;;;;6.05;1.77;;;14.50;1.00;;;;;;5106321;28;20085;-80
2023/10/02 04:50:53;;;;;;;3.10;0.90;;;14.50;1.00;;;;;;5113119;28;20135;-79
2023/10/02 04:53:19;;;;;;;3.17;1.20;;;14.50;1.00;;;;;;5099081;28;20395;-77
2023/10/02 04:55:48;;;;;;;1.45;1.15;;;14.50;1.00;;;;;;5103153;28;20075;-77
2023/10/02 04:58:19;;;;;;;1.92;1.48;;;14.60;1.00;;;;;;5111419;28;20036;-77
2023/10/02 05:03:28;;;;;;;2.72;1.20;;;14.60;13.70;;;;;;5109612;28;20047;-78
2023/10/02 05:05:55;;;;;;;1.67;1.30;;;14.60;1.00;;;;;;5104269;28;20036;-78
2023/10/02 05:09:17;;;;;;;0.90;0.70;;;14.60;1.00;;;;;;5109550;28;20040;-78
2023/10/02 05:11:46;;;;;;;3.72;2.42;;;14.70;1.00;;;;;;5107330;28;20079;-77
2023/10/02 05:14:13;;;;;;;2.15;1.80;;;14.60;1.00;;;;;;5103384;28;20379;-77
2023/10/02 05:16:42;;;;;;;1.48;1.23;;;14.60;1.00;;;;;;5108114;28;20497;-78
2023/10/02 05:19:08;;;;;;;1.25;1.10;;;14.70;1.00;;;;;;5109991;28;20114;-78
2023/10/02 05:21:58;;;;;;;0.93;0.82;;;14.80;1.00;;;;;;5110403;28;20036;-78
2023/10/02 05:24:24;;;;;;;1.10;1.00;;;14.60;1.00;;;;;;5109348;28;20040;-78
2023/10/02 05:26:49;;;;;;;2.63;1.33;;;14.60;1.00;;;;;;5101212;28;20044;-78
2023/10/02 05:32:15;;;;;;;1.27;1.17;;;14.60;36.70;;;;;;5105798;28;20048;-78
2023/10/02 05:34:58;;;;;;;2.83;2.45;;;14.60;16.70;;;;;;5105726;28;20119;-78
2023/10/02 05:37:30;;;;;;;1.98;1.17;;;14.60;38.90;;;;;;5106113;28;20393;-78
2023/10/02 05:40:37;;;;;;;2.72;1.85;;;14.70;28.20;;;;;;5106121;28;20043;-78
2023/10/02 05:42:53;;;;;;;4.43;2.92;;;14.70;30.80;;;;;;5105225;28;20048;-78
2023/10/02 05:45:39;;;;;;;;;;;14.60;21.10;;;;;;5100714;28;20052;-78
2023/10/02 05:48:08;;;;;;;1.27;0.63;;;14.60;25.90;;;;;;5108083;28;20338;-78
2023/10/02 05:50:40;;;;;;;1.23;1.13;;;14.60;18.50;;;;;;5110459;28;20397;-78
2023/10/02 05:53:06;;;;;;;3.15;1.42;;;14.50;25.20;;;;;;5108282;28;20054;-77
2023/10/02 05:55:56;;;;;;;3.25;0.75;;;14.60;47.50;;;;;;5105250;28;20484;-79
2023/10/02 05:58:30;;;;;;;2.28;1.55;;;14.50;9.80;;;;;;5104780;28;20052;-79
2023/10/02 06:01:04;;;;;;;2.45;1.75;;;14.50;1.00;;;;;;5104334;28;20439;-78
2023/10/02 06:03:36;;;;;;;4.75;1.70;;;14.50;30.00;;;;;;5105081;28;20058;-78
2023/10/02 06:06:18;;;;;;;1.50;1.40;;;14.50;54.40;;;;;;5106205;28;20042;-78
2023/10/02 06:08:49;;;;;;;4.60;1.60;;;14.60;54.60;;;;;;5094343;28;20040;-78
2023/10/02 06:11:34;;;;;;;2.13;1.30;;;14.60;97.20;;;;;;5102514;28;20400;-78
2023/10/02 06:14:10;;;;;;;1.70;1.38;;;14.80;99.90;;;;;;5102484;28;20032;-78
2023/10/02 06:16:39;;;;;;;1.30;1.15;;;14.90;98.70;;;;;;5103786;28;20048;-79
2023/10/02 06:19:06;;;;;;;3.15;1.73;;;14.90;94.30;;;;;;5105698;28;20392;-78
2023/10/02 06:21:45;;;;;;;2.55;0.85;;;15.00;70.10;;;;;;5105501;28;20043;-78
2023/10/02 06:24:15;;;;;;;2.63;0.88;;;15.20;57.90;;;;;;5095925;28;20043;-78
2023/10/02 06:26:55;;;;;;;3.20;1.75;;;15.20;52.50;;;;;;5102709;28;20511;-78
2023/10/02 06:29:31;;;;;;;2.65;2.05;;;15.30;19.60;;;;;;5105342;28;20400;-78
2023/10/02 06:32:09;;;;;;;2.88;1.60;;;15.40;6.10;;;;;;5102017;28;20040;-78
2023/10/02 06:34:39;;;;;;;1.85;1.35;;;15.40;1.00;;;;;;5099417;28;20396;-77
2023/10/02 06:37:11;;;;;;;3.00;1.95;;;15.60;1.00;;;;;;5100158;28;20052;-77
2023/10/02 06:39:39;;;;;;;2.50;1.50;;;15.70;99.90;;;;;;5086570;28;20044;-77
2023/10/02 06:42:09;;;;;;;2.90;1.95;;;15.70;99.90;;;;;;5080534;28;20401;-77
2023/10/02 06:44:52;;;;;;;3.50;1.75;;;15.80;99.90;;;;;;5076649;28;20755;-77
2023/10/02 06:47:29;;;;;;;3.05;1.65;;;15.80;99.90;;;;;;5077233;28;20420;-77
2023/10/02 06:50:02;;;;;;;16.23;4.57;;;15.80;99.90;;;;;;5076907;28;20040;-77
2023/10/02 06:52:29;;;;;;;3.83;1.95;;;15.90;42.20;;;;;;5086806;28;20039;-77
2023/10/02 06:54:56;;;;;;;0.82;0.80;;;16.10;1.00;;;;;;5086692;28;20511;-77
2023/10/02 06:57:24;;;;;;;1.95;1.63;;;16.00;1.00;;;;;;5089792;28;20036;-78
2023/10/02 06:59:53;;;;;;;3.15;2.00;;;15.90;1.00;;;;;;5086375;28;20047;-77
2023/10/02 07:02:20;;;;;;;1.00;0.88;;;15.90;1.00;;;;;;5090673;28;20575;-77
2023/10/02 07:04:47;;;;;;;3.28;1.73;;;16.10;1.00;;;;;;5089148;28;20405;-77
2023/10/02 07:07:14;;;;;;;0.47;0.47;;;16.00;1.00;;;;;;5089664;28;20047;-77
2023/10/02 07:09:40;;;;;;;0.98;0.93;;;16.00;1.00;;;;;;5087454;28;20421;-77
2023/10/02 07:12:09;;;;;;;7.93;1.85;;;16.10;1.00;;;;;;5083342;28;20052;-77
2023/10/02 07:14:38;;;;;;;3.08;1.67;;;16.10;1.00;;;;;;5097527;28;20048;-77
2023/10/02 07:17:16;;;;;;;1.73;1.63;;;16.30;99.90;;;;;;5101467;28;20048;-77
2023/10/02 07:19:51;;;;;;;5.78;2.08;;;16.30;99.90;;;;;;5099869;28;20043;-77
2023/10/02 07:22:23;;;;;;;2.25;1.45;;;16.40;99.90;;;;;;5098402;28;20040;-77
2023/10/02 07:24:55;;;;;;;2.30;2.05;;;16.50;99.90;;;;;;5103406;28;20087;-77
2023/10/02 07:27:25;;;;;;;3.22;2.35;;;16.60;99.90;;;;;;5098249;28;20438;-77
2023/10/02 07:29:52;;;;;;;2.10;1.27;;;16.60;99.90;;;;;;5099941;28;20087;-77
2023/10/02 07:32:19;;;;;;;0.88;0.80;;;16.70;99.90;;;;;;5101551;28;20099;-77
2023/10/02 07:34:48;;;;;;;1.55;0.98;;;17.00;33.50;;;;;;5101437;28;20050;-77
2023/10/02 07:37:16;;;;;;;2.72;1.23;;;16.80;9.60;;;;;;5089912;28;20040;-77
2023/10/02 07:39:43;;;;;;;2.30;1.20;;;17.00;1.00;;;;;;5098017;28;20189;-77
2023/10/02 07:42:11;;;;;;;1.85;0.80;;;17.10;99.90;;;;;;5099965;28;20036;-77
2023/10/02 07:44:38;;;;;;;4.70;2.08;;;17.20;99.90;;;;;;5100896;28;20412;-78
2023/10/02 07:47:21;;;;;;;1.85;1.30;;;17.30;99.90;;;;;;5100766;28;20050;-78
2023/10/02 07:49:51;;;;;;;3.53;2.50;;;17.60;99.90;;;;;;5095283;28;20471;-78
2023/10/02 07:52:35;;;;;;;3.42;2.47;;;17.70;99.90;;;;;;5099978;28;20047;-77
2023/10/02 07:55:01;;;;;;;5.68;3.78;;;17.80;99.90;;;;;;5105356;28;20553;-77
2023/10/02 07:57:35;;;;;;;4.50;2.28;;;18.00;45.70;;;;;;5102890;28;20035;-77
2023/10/02 08:00:33;;;;;;;15.30;2.30;;;18.20;95.10;;;;;;5102437;28;20089;-77
2023/10/02 08:02:53;;;;;;;1.80;1.10;;;18.30;8.10;;;;;;5095761;28;20270;-77
2023/10/02 08:05:21;;;;;;;15.13;2.40;;;18.40;99.90;;;;;;5102180;28;20392;-77
2023/10/02 08:07:48;;;;;;;3.80;2.38;;;18.50;93.70;;;;;;5099964;28;20043;-77
2023/10/02 08:10:15;;;;;;;3.00;1.58;;;18.60;99.90;;;;;;5100822;28;20142;-77
2023/10/02 08:12:54;;;;;;;1.73;1.08;;;18.70;99.90;;;;;;5102709;28;20079;-77
2023/10/02 08:15:26;;;;;;;6.15;3.15;;;18.70;1.00;;;;;;5103877;28;20050;-77
2023/10/02 08:20:32;;;;;;;4.50;2.30;;;18.80;99.90;;;;;;5100703;28;20044;-78
2023/10/02 08:22:58;;;;;;;;;;;18.90;99.90;;;;;;5094707;28;20496;-78
2023/10/02 08:25:26;;;;;;;2.72;1.85;;;19.00;99.90;;;;;;5104839;28;19930;-78
2023/10/02 08:27:57;;;;;;;2.17;1.08;;;19.00;99.90;;;;;;5097843;28;20043;-78
2023/10/02 08:30:36;;;;;;;4.60;2.65;;;19.10;99.90;;;;;;5100742;28;20043;-78
2023/10/02 08:33:08;;;;;;;3.40;1.20;;;19.10;99.90;;;;;;5098240;28;20048;-78
2023/10/02 08:35:37;;;;;;;0.82;0.82;;;19.30;99.90;;;;;;5095843;28;20122;-78
2023/10/02 08:38:07;;;;;;;4.65;2.70;;;19.60;1.00;;;;;;5102476;28;20128;-78
2023/10/02 08:40:33;;;;;;;1.70;1.60;;;19.50;99.90;;;;;;5098078;28;20047;-79
2023/10/02 08:42:59;;;;;;;6.97;1.70;;;19.60;99.90;;;;;;5101206;28;20131;-78
2023/10/02 08:45:25;;;;;;;1.33;1.17;;;19.70;33.80;;;;;;5104609;28;20122;-79
2023/10/02 08:47:52;;;;;;;4.22;2.47;;;19.80;99.90;;;;;;5103965;28;20427;-78
2023/10/02 08:50:18;;;;;;;2.08;1.67;;;19.90;99.90;;;;;;5101970;28;20055;-78
2023/10/02 08:52:51;;;;;;;3.60;2.78;;;20.00;1.00;;;;;;5081922;28;20056;-78
2023/10/02 08:55:34;;;;;;;1.75;1.38;;;20.20;1.00;;;;;;5100845;28;20089;-78
2023/10/02 08:58:15;;;;;;;6.63;2.70;;;20.50;1.00;;;;;;5100260;28;20504;-78
2023/10/02 09:01:06;;;;;;;2.40;1.95;;;20.80;99.90;;;;;;5092974;28;20044;-78
2023/10/02 09:03:42;;;;;;;4.75;2.45;;;21.00;99.90;;;;;;5104893;28;20104;-78
2023/10/02 09:11:45;;;;;;;9.23;3.22;;;21.10;99.90;;;;;;5100403;28;20166;-79
2023/10/02 09:19:49;;;;;;;2.25;1.13;;;20.80;99.90;;;;;;5102689;28;20060;-79
2023/10/02 09:22:18;;;;;;;3.38;1.85;;;20.90;99.90;;;;;;5103809;28;20176;-78
2023/10/02 09:24:58;;;;;;;1.65;1.20;;;21.00;99.90;;;;;;5094689;28;20537;-78
2023/10/02 09:27:28;;;;;;;4.03;1.40;;;21.10;99.90;;;;;;5071813;28;20086;-78
2023/10/02 09:32:51;;;;;;;3.15;1.70;;;21.60;99.90;;;;;;5066874;28;20052;-77
2023/10/02 09:35:22;;;;;;;6.75;2.17;;;21.80;99.90;;;;;;5078098;28;20103;-78
2023/10/02 09:37:56;;;;;;;4.05;1.60;;;22.10;99.90;;;;;;5067299;28;20118;-78
2023/10/02 09:40:29;;;;;;;1.17;0.90;;;22.50;99.90;;;;;;5096245;28;20500;-78
2023/10/02 09:43:06;;;;;;;1.50;1.40;;;22.80;99.90;;;;;;5104945;28;20051;-78
2023/10/02 09:45:37;;;;;;;1.77;1.38;;;23.20;99.90;;;;;;5097433;28;20060;-78
2023/10/02 09:48:05;;;;;;;5.78;1.83;;;23.50;99.90;;;;;;5099297;28;20048;-77
2023/10/02 09:50:37;;;;;;;1.98;1.40;;;23.50;99.90;;;;;;5096502;28;20048;-78
2023/10/02 09:53:10;;;;;;;3.33;2.17;;;23.40;99.90;;;;;;5103838;28;20381;-78
2023/10/02 09:55:50;;;;;;;1.77;1.20;;;23.30;99.90;;;;;;5091865;28;20072;-77
2023/10/02 09:58:28;;;;;;;2.67;1.58;;;23.00;99.90;;;;;;5097546;28;20055;-79
2023/10/02 10:01:22;;;;;;;3.33;1.67;;;22.80;99.90;;;;;;5082239;28;20145;-79
2023/10/02 10:03:51;;;;;;;1.02;0.93;;;22.60;92.80;;;;;;5073481;28;20048;-78
2023/10/02 10:06:27;;;;;;;0.98;0.85;;;22.50;99.90;;;;;;5079821;28;20034;-78
2023/10/02 10:11:45;;;;;;;2.15;1.83;;;22.50;99.90;;;;;;5109364;28;20101;-77
2023/10/02 10:14:40;;;;;;;8.75;2.35;;;22.80;99.90;;;;;;5103214;28;20190;-78
2023/10/02 10:17:13;;;;;;;4.28;1.40;;;22.80;99.90;;;;;;5080757;28;20048;-79
2023/10/02 10:20:39;;;;;;;4.10;2.53;;;23.10;99.90;;;;;;5101293;28;20055;-77
2023/10/02 10:22:39;;;;;;;2.42;1.15;;;23.20;99.90;;;;;;5094341;28;20128;-79
2023/10/02 10:27:55;;;;;;;5.43;1.85;;;23.20;99.90;;;;;;5096116;28;20059;-77
2023/10/02 10:30:39;;;;;;;2.70;1.92;;;23.10;99.90;;;;;;5095257;28;20114;-77
2023/10/02 10:35:40;;;;;;;3.47;2.03;;;23.10;89.50;;;;;;5080321;28;20148;-79
2023/10/02 10:41:14;;;;;;;3.35;2.13;;;23.50;99.90;;;;;;5085032;28;20044;-79
2023/10/02 10:46:21;;;;;;;4.68;2.35;;;24.10;98.40;;;;;;5094512;28;20497;-77
2023/10/02 10:49:10;;;;;;;2.70;2.13;;;24.20;96.90;;;;;;5102795;28;20043;-78
2023/10/02 10:51:39;;;;;;;2.20;1.52;;;24.20;86.00;;;;;;5092183;28;20105;-78
2023/10/02 10:54:12;;;;;;;5.38;2.10;;;24.10;78.60;;;;;;5098600;28;20087;-77
2023/10/02 10:56:43;;;;;;;1.70;1.42;;;23.90;62.80;;;;;;5102106;28;20074;-77
2023/10/02 10:59:21;;;;;;;5.72;2.28;;;23.90;58.00;;;;;;5102808;28;20119;-78
2023/10/02 11:04:41;;;;;;;1.55;1.40;;;24.10;51.50;;;;;;5103759;28;20050;-79
2023/10/02 11:07:25;;;;;;;2.90;2.35;;;24.10;55.20;;;;;;5103061;28;20073;-76
2023/10/02 11:10:19;;;;;;;4.60;1.23;;;24.20;50.30;;;;;;5092231;28;20047;-77
2023/10/02 11:13:00;;;;;;;1.10;0.98;;;24.40;67.90;;;;;;5103571;28;20114;-78
2023/10/02 11:15:46;;;;;;;3.15;2.25;;;24.50;29.70;;;;;;5103770;28;20044;-78
2023/10/02 11:18:23;;;;;;;1.27;1.17;;;24.80;71.20;;;;;;5099971;28;20028;-76
2023/10/02 11:20:51;;;;;;;3.03;2.35;;;25.20;77.50;;;;;;5103132;28;20083;-77
2023/10/02 11:23:39;;;;;;;2.15;1.65;;;25.30;43.50;;;;;;5097301;28;20044;-77
2023/10/02 11:26:13;;;;;;;4.45;2.22;;;25.20;38.00;;;;;;5079745;28;20075;-75
2023/10/02 11:28:45;;;;;;;5.40;2.38;;;25.20;25.70;;;;;;5102570;28;20040;-76
2023/10/02 11:31:45;;;;;;;6.38;2.47;;;25.10;19.00;;;;;;5098707;28;20043;-78
2023/10/02 11:34:11;;;;;;;2.60;1.17;;;25.10;8.90;;;;;;5108567;28;20065;-78
2023/10/02 11:36:39;;;;;;;5.97;2.72;;;25.10;15.30;;;;;;5087036;28;20043;-75
2023/10/02 11:39:16;;;;;;;3.03;1.92;;;25.50;28.50;;;;;;5113222;28;20054;-76
2023/10/02 11:41:42;;;;;;;7.13;3.10;;;25.70;8.80;;;;;;5104176;28;20047;-77
2023/10/02 11:44:11;;;;;;;7.32;2.97;;;25.60;3.70;;;;;;5100281;28;20040;-77
2023/10/02 11:46:37;;;;;;;2.05;1.85;;;25.60;8.50;;;;;;5099336;28;20129;-76
2023/10/02 11:49:03;;;;;;;5.53;1.80;;;25.60;15.00;;;;;;5097193;28;20047;-76
2023/10/02 11:51:29;;;;;;;3.53;2.25;;;25.80;3.20;;;;;;5086886;28;20040;-77
2023/10/02 11:53:56;;;;;;;1.55;1.00;;;25.70;1.00;;;;;;5089566;28;20481;-77
2023/10/02 11:56:23;;;;;;;5.35;2.25;;;25.50;1.00;;;;;;5099122;28;20051;-76
2023/10/02 11:58:52;;;;;;;8.18;3.20;;;25.40;1.00;;;;;;5099167;28;20086;-77
2023/10/02 12:01:19;;;;;;;7.63;3.08;;;25.20;1.00;;;;;;5102562;28;20460;-77
2023/10/02 12:03:45;;;;;;;4.03;2.47;;;25.10;1.00;;;;;;5096775;28;20088;-76
2023/10/02 12:06:12;;;;;;;2.88;2.25;;;24.90;1.00;;;;;;5103143;28;20055;-77
2023/10/02 12:08:38;;;;;;;3.47;2.25;;;25.00;1.00;;;;;;5071666;28;20048;-77
2023/10/02 12:11:04;;;;;;;7.63;2.17;;;24.90;1.00;;;;;;5099295;28;20054;-77
2023/10/02 12:13:29;;;;;;;2.63;1.95;;;24.90;1.00;;;;;;5104701;28;20047;-77
2023/10/02 12:15:56;;;;;;;4.40;3.10;;;24.80;1.00;;;;;;5086611;28;20048;-76
2023/10/02 12:18:22;;;;;;;1.52;1.42;;;24.70;1.00;;;;;;5081831;28;20040;-77
2023/10/02 12:20:49;;;;;;;5.00;2.97;;;24.70;1.00;;;;;;5081180;28;20457;-77
2023/10/02 12:23:16;;;;;;;11.70;3.28;;;24.90;1.00;;;;;;5088266;28;20349;-77
2023/10/02 12:25:50;;;;;;;3.63;2.33;;;24.90;1.00;;;;;;5083915;28;20052;-76
2023/10/02 12:28:17;;;;;;;7.25;2.15;;;24.90;1.00;;;;;;5095038;28;20429;-76
2023/10/02 12:30:42;;;;;;;2.00;1.52;;;25.10;1.00;;;;;;5099025;28;20066;-77
2023/10/02 12:33:09;;;;;;;10.52;3.30;;;25.40;1.00;;;;;;5083265;28;20036;-76
2023/10/02 12:35:36;;;;;;;12.75;2.47;;;25.60;1.00;;;;;;5100371;28;20132;-77
2023/10/02 12:38:03;;;;;;;2.38;2.15;;;25.60;1.00;;;;;;5064202;28;20037;-79
2023/10/02 12:40:31;;;;;;;3.25;1.98;;;25.50;1.00;;;;;;5097146;28;20062;-78
2023/10/02 12:43:01;;;;;;;2.08;1.55;;;25.50;1.00;;;;;;5074697;28;20482;-78
2023/10/02 12:45:35;;;;;;;4.80;2.60;;;25.50;1.00;;;;;;5095928;28;20077;-77
2023/10/02 12:48:09;;;;;;;1.23;1.13;;;25.50;1.00;;;;;;5088977;28;20045;-78
2023/10/02 12:50:41;;;;;;;19.08;2.80;;;25.30;1.00;;;;;;5102594;28;20040;-78
2023/10/02 12:53:10;;;;;;;4.72;1.83;;;25.10;1.00;;;;;;5088859;28;20138;-77
2023/10/02 12:55:36;;;;;;;2.35;1.60;;;25.00;1.00;;;;;;5090602;28;20058;-78
2023/10/02 12:58:04;;;;;;;2.15;1.95;;;25.00;1.00;;;;;;5090805;28;20424;-78
2023/10/02 13:00:31;;;;;;;2.80;1.17;;;25.00;1.00;;;;;;5088801;28;20049;-77
2023/10/02 13:02:57;;;;;;;1.90;1.35;;;25.00;1.00;;;;;;5092968;28;20059;-77
2023/10/02 13:05:23;;;;;;;1.35;1.05;;;24.90;1.00;;;;;;5083203;28;20031;-78
2023/10/02 13:07:50;;;;;;;4.13;2.30;;;24.80;1.00;;;;;;5080478;28;20378;-77
2023/10/02 13:10:16;;;;;;;6.28;2.17;;;24.70;1.00;;;;;;5093582;28;20158;-77
2023/10/02 13:12:42;;;;;;;4.25;2.05;;;24.60;1.00;;;;;;5077220;28;20450;-78
2023/10/02 13:15:08;;;;;;;2.90;2.05;;;24.70;1.00;;;;;;5069750;28;20151;-77
2023/10/02 13:17:34;;;;;;;1.17;1.00;;;24.70;1.00;;;;;;5063288;28;20051;-77
2023/10/02 13:20:02;;;;;;;3.13;2.05;;;24.60;1.00;;;;;;5055420;28;20045;-78
2023/10/02 13:22:28;;;;;;;2.70;1.50;;;24.40;1.00;;;;;;5085805;28;20400;-77
2023/10/02 13:24:53;;;;;;;5.32;3.42;;;24.30;1.00;;;;;;5077776;28;20043;-76
2023/10/02 13:27:19;;;;;;;10.52;3.15;;;24.20;1.00;;;;;;5087469;28;20042;-77
2023/10/02 13:29:45;;;;;;;5.65;1.50;;;24.10;1.00;;;;;;5104047;28;20385;-77
2023/10/02 13:32:11;;;;;;;4.97;2.88;;;24.00;1.00;;;;;;5102361;28;20036;-77
2023/10/02 13:34:36;;;;;;;4.47;2.75;;;24.00;1.00;;;;;;5102722;28;20036;-77
2023/10/02 13:37:02;;;;;;;5.00;1.98;;;24.00;1.00;;;;;;5104926;28;20089;-77
2023/10/02 13:39:29;;;;;;;3.50;2.05;;;24.00;1.00;;;;;;5104708;28;20062;-77
2023/10/02 13:41:55;;;;;;;3.95;2.50;;;23.80;1.00;;;;;;5103567;28;20075;-77
2023/10/02 13:44:22;;;;;;;3.67;1.67;;;23.80;1.00;;;;;;5101329;28;20043;-77
2023/10/02 13:46:48;;;;;;;1.52;1.08;;;23.90;1.00;;;;;;5101177;28;20577;-77
2023/10/02 13:49:16;;;;;;;9.00;2.25;;;23.90;1.00;;;;;;5103789;28;20048;-77
2023/10/02 13:51:43;;;;;;;4.55;2.60;;;24.00;1.00;;;;;;5104430;28;20052;-77
2023/10/02 13:54:09;;;;;;;7.07;2.17;;;23.90;1.00;;;;;;5104525;28;20123;-77
2023/10/02 13:56:35;;;;;;;2.40;1.80;;;23.80;1.00;;;;;;5102918;28;20086;-77
2023/10/02 13:59:01;;;;;;;1.58;1.48;;;23.70;1.00;;;;;;5102817;28;20083;-77
2023/10/02 14:01:30;;;;;;;2.25;1.33;;;23.70;1.00;;;;;;5105132;28;20040;-77
2023/10/02 14:03:56;;;;;;;3.47;2.17;;;23.60;1.00;;;;;;5106409;28;20044;-77
2023/10/02 14:06:24;;;;;;;3.17;2.55;;;23.70;1.00;;;;;;5105149;28;20035;-77
2023/10/02 14:08:50;;;;;;;1.95;1.55;;;23.70;1.00;;;;;;5107830;28;20043;-77
2023/10/02 14:11:17;;;;;;;3.83;2.45;;;23.80;1.00;;;;;;5106056;28;20132;-77
2023/10/02 14:13:47;;;;;;;9.50;2.85;;;23.80;1.00;;;;;;5093889;28;20048;-77
2023/10/02 14:16:14;;;;;;;1.52;1.20;;;23.80;1.00;;;;;;5102664;28;20176;-77
2023/10/02 14:18:41;;;;;;;2.00;1.40;;;23.80;1.00;;;;;;5086764;28;20044;-77
2023/10/02 14:21:09;;;;;;;4.88;2.88;;;23.90;1.00;;;;;;5105863;28;20575;-77
2023/10/02 14:23:36;;;;;;;3.33;1.85;;;24.10;1.00;;;;;;5105134;28;20035;-77
2023/10/02 14:26:06;;;;;;;3.40;2.05;;;24.20;1.00;;;;;;5102695;28;20035;-77
2023/10/02 14:28:32;;;;;;;2.50;2.30;;;24.30;1.00;;;;;;5102318;28;20113;-77
2023/10/02 14:30:58;;;;;;;3.45;2.58;;;24.20;1.00;;;;;;5105072;28;20079;-77
2023/10/02 14:33:24;;;;;;;0.82;0.82;;;24.20;1.00;;;;;;5105659;28;20043;-77